Terminal Aerodrome Forecast
Issued by NWS

Home | Current Version | Previous Version | Text Only | Print | Product List | Glossary On
Versions: 1 2 3 4 5 6 7 8 9 10 11 12 13 14 15 16 17 18 19 20 21 22 23 24 25 26 27 28 29 30 31
000
FTUS44 KHGX 102327
TAFIAH
TAF
KIAH 102327Z 1100/1206 13010KT P6SM OVC060
     FM110600 12007KT P6SM SCT025 BKN035
     FM110900 15005KT P6SM BKN025
      TEMPO 1113/1115 BKN015
     FM111500 17010KT P6SM BKN020
     FM112000 18010G20KT P6SM BKN022
     FM120200 18009KT 5SM BR BKN017=

USA.gov is the U.S. government's official web portal to all federal, state and local government web resources and services.